ナイロビ の空港の天気 - METARとTAF

ジョモ・ケニヤッタ国際空港 ( HKJK / NBO ) - ケニア ナイロビ
飛行場実況気象(Metar)
観測時間10/22 14:30 EAT (10/22 11:30 UTC)
風向・風速北北東 4m/s
視程10km以上
天気現象
全天の4割程度の雲 雲底高度 980m
気温26℃
湿度42%
気圧1020hPa
METARHKJK 221130Z 03007KT 9999 SCT032 26/12 Q1020 NOSIG
過去の天気等 Google飛行場航空写真 Wunderground天気予報

過去48時間のMETAR

飛行場予報(TAF)
発表時間: 10/22 14:00 EAT (10/22 11:00 UTC)
予報対象時間: 22日15時 EAT ~ 23日21時 EAT
風向・風速東 5m/s
視程10km以上
全天の8割程度の雲 雲底高度 880m
22日23時 EAT ~ 23日2時 EAT に徐々に
風向・風速北北東 3m/s
全天の8割程度の雲 雲底高度 580m
23日3時 EAT ~ 23日7時 EAT に一時的に
少しの雲 雲底高度 240m
全天の8割程度の雲 雲底高度 460m
23日11時 EAT ~ 23日14時 EAT に徐々に
風向・風速東 5m/s
全天の8割程度の雲 雲底高度 790m
TAF HKJK 221100Z 2212/2318 09010KT 9999 BKN029
BECMG 2220/2223 02005KT BKN019
TEMPO 2300/2304 FEW008 BKN015
BECMG 2308/2311 09010KT BKN026